sensor_id;sensor_type;location;lat;lon;timestamp;P1;durP1;ratioP1;P2;durP2;ratioP2
62423;SDS011;48463;43.604;3.872;2023-04-15T00:00:45;5.70;;;3.78;;
62423;SDS011;48463;43.604;3.872;2023-04-15T00:03:10;5.03;;;3.80;;
62423;SDS011;48463;43.604;3.872;2023-04-15T00:05:36;12.75;;;4.03;;
62423;SDS011;48463;43.604;3.872;2023-04-15T00:08:02;6.22;;;3.88;;
62423;SDS011;48463;43.604;3.872;2023-04-15T00:10:28;6.25;;;3.72;;
62423;SDS011;48463;43.604;3.872;2023-04-15T00:12:53;5.47;;;4.03;;
62423;SDS011;48463;43.604;3.872;2023-04-15T00:15:19;8.02;;;4.35;;
62423;SDS011;48463;43.604;3.872;2023-04-15T00:17:45;7.95;;;4.10;;
62423;SDS011;48463;43.604;3.872;2023-04-15T00:20:10;6.90;;;4.10;;
62423;SDS011;48463;43.604;3.872;2023-04-15T00:22:36;10.25;;;4.20;;
62423;SDS011;48463;43.604;3.872;2023-04-15T00:25:02;5.15;;;3.85;;
62423;SDS011;48463;43.604;3.872;2023-04-15T00:27:28;5.90;;;4.10;;
62423;SDS011;48463;43.604;3.872;2023-04-15T00:29:54;10.38;;;4.47;;
62423;SDS011;48463;43.604;3.872;2023-04-15T00:32:20;11.38;;;4.60;;
62423;SDS011;48463;43.604;3.872;2023-04-15T00:34:46;4.78;;;4.10;;
62423;SDS011;48463;43.604;3.872;2023-04-15T00:37:11;5.35;;;4.25;;
62423;SDS011;48463;43.604;3.872;2023-04-15T00:39:37;6.80;;;4.30;;
62423;SDS011;48463;43.604;3.872;2023-04-15T00:42:03;4.85;;;3.53;;
62423;SDS011;48463;43.604;3.872;2023-04-15T00:44:29;4.90;;;3.90;;
62423;SDS011;48463;43.604;3.872;2023-04-15T00:46:55;5.75;;;4.10;;
62423;SDS011;48463;43.604;3.872;2023-04-15T00:49:21;6.38;;;4.10;;
62423;SDS011;48463;43.604;3.872;2023-04-15T00:51:47;3.92;;;3.15;;
62423;SDS011;48463;43.604;3.872;2023-04-15T00:54:13;5.53;;;3.63;;
62423;SDS011;48463;43.604;3.872;2023-04-15T00:56:39;9.02;;;4.13;;
62423;SDS011;48463;43.604;3.872;2023-04-15T00:59:05;4.30;;;3.33;;
62423;SDS011;48463;43.604;3.872;2023-04-15T01:01:32;4.95;;;3.92;;
62423;SDS011;48463;43.604;3.872;2023-04-15T01:03:59;4.88;;;3.75;;
62423;SDS011;48463;43.604;3.872;2023-04-15T01:06:25;7.43;;;3.53;;
62423;SDS011;48463;43.604;3.872;2023-04-15T01:08:51;4.78;;;3.33;;
62423;SDS011;48463;43.604;3.872;2023-04-15T01:11:22;8.32;;;3.47;;
62423;SDS011;48463;43.604;3.872;2023-04-15T01:13:48;6.32;;;3.80;;
62423;SDS011;48463;43.604;3.872;2023-04-15T01:16:15;5.90;;;3.20;;
62423;SDS011;48463;43.604;3.872;2023-04-15T01:18:41;4.25;;;3.47;;
62423;SDS011;48463;43.604;3.872;2023-04-15T01:21:07;5.13;;;3.40;;
62423;SDS011;48463;43.604;3.872;2023-04-15T01:23:34;5.30;;;3.45;;
62423;SDS011;48463;43.604;3.872;2023-04-15T01:26:01;3.40;;;3.10;;
62423;SDS011;48463;43.604;3.872;2023-04-15T01:28:28;3.35;;;3.05;;
62423;SDS011;48463;43.604;3.872;2023-04-15T01:33:31;5.88;;;3.30;;
62423;SDS011;48463;43.604;3.872;2023-04-15T01:35:57;3.25;;;2.95;;
62423;SDS011;48463;43.604;3.872;2023-04-15T01:38:23;4.45;;;2.97;;
62423;SDS011;48463;43.604;3.872;2023-04-15T01:40:49;3.17;;;2.67;;
62423;SDS011;48463;43.604;3.872;2023-04-15T01:43:15;3.70;;;3.22;;
62423;SDS011;48463;43.604;3.872;2023-04-15T01:45:41;3.33;;;3.03;;
62423;SDS011;48463;43.604;3.872;2023-04-15T01:48:07;3.75;;;3.38;;
62423;SDS011;48463;43.604;3.872;2023-04-15T01:50:33;3.83;;;3.13;;
62423;SDS011;48463;43.604;3.872;2023-04-15T01:53:00;3.95;;;3.00;;
62423;SDS011;48463;43.604;3.872;2023-04-15T01:55:26;3.80;;;3.08;;
62423;SDS011;48463;43.604;3.872;2023-04-15T01:57:51;4.72;;;3.08;;
62423;SDS011;48463;43.604;3.872;2023-04-15T02:00:17;3.00;;;2.78;;
62423;SDS011;48463;43.604;3.872;2023-04-15T02:02:43;4.13;;;3.28;;
62423;SDS011;48463;43.604;3.872;2023-04-15T02:05:08;3.58;;;3.05;;
62423;SDS011;48463;43.604;3.872;2023-04-15T02:07:34;6.68;;;3.10;;
62423;SDS011;48463;43.604;3.872;2023-04-15T02:10:01;3.53;;;2.97;;
62423;SDS011;48463;43.604;3.872;2023-04-15T02:12:28;3.20;;;2.90;;
62423;SDS011;48463;43.604;3.872;2023-04-15T02:14:53;4.88;;;3.50;;
62423;SDS011;48463;43.604;3.872;2023-04-15T02:17:19;3.60;;;3.03;;
62423;SDS011;48463;43.604;3.872;2023-04-15T02:19:45;3.60;;;3.08;;
62423;SDS011;48463;43.604;3.872;2023-04-15T02:22:12;3.17;;;2.88;;
62423;SDS011;48463;43.604;3.872;2023-04-15T02:24:42;3.33;;;3.03;;
62423;SDS011;48463;43.604;3.872;2023-04-15T02:27:08;5.78;;;3.03;;
62423;SDS011;48463;43.604;3.872;2023-04-15T02:29:33;4.05;;;3.42;;
62423;SDS011;48463;43.604;3.872;2023-04-15T02:31:59;5.35;;;3.30;;
62423;SDS011;48463;43.604;3.872;2023-04-15T02:34:25;4.55;;;3.20;;
62423;SDS011;48463;43.604;3.872;2023-04-15T02:36:51;6.15;;;3.03;;
62423;SDS011;48463;43.604;3.872;2023-04-15T02:39:21;4.40;;;3.40;;
62423;SDS011;48463;43.604;3.872;2023-04-15T02:41:46;3.42;;;3.03;;
62423;SDS011;48463;43.604;3.872;2023-04-15T02:44:16;4.78;;;3.45;;
62423;SDS011;48463;43.604;3.872;2023-04-15T02:46:45;5.50;;;3.65;;
62423;SDS011;48463;43.604;3.872;2023-04-15T02:49:14;3.63;;;3.00;;
62423;SDS011;48463;43.604;3.872;2023-04-15T02:51:40;5.70;;;3.42;;
62423;SDS011;48463;43.604;3.872;2023-04-15T02:54:06;5.80;;;3.42;;
62423;SDS011;48463;43.604;3.872;2023-04-15T02:56:32;3.22;;;2.92;;
62423;SDS011;48463;43.604;3.872;2023-04-15T02:58:58;3.45;;;3.10;;
62423;SDS011;48463;43.604;3.872;2023-04-15T03:01:24;7.32;;;3.38;;
62423;SDS011;48463;43.604;3.872;2023-04-15T03:03:50;4.28;;;3.05;;
62423;SDS011;48463;43.604;3.872;2023-04-15T03:06:16;5.43;;;3.72;;
62423;SDS011;48463;43.604;3.872;2023-04-15T03:08:41;3.53;;;2.90;;
62423;SDS011;48463;43.604;3.872;2023-04-15T03:11:07;3.65;;;3.00;;
62423;SDS011;48463;43.604;3.872;2023-04-15T03:13:32;3.80;;;3.15;;
62423;SDS011;48463;43.604;3.872;2023-04-15T03:15:58;2.90;;;2.70;;
62423;SDS011;48463;43.604;3.872;2023-04-15T03:18:24;3.17;;;2.88;;
62423;SDS011;48463;43.604;3.872;2023-04-15T03:20:49;3.15;;;2.85;;
62423;SDS011;48463;43.604;3.872;2023-04-15T03:23:15;3.70;;;3.22;;
62423;SDS011;48463;43.604;3.872;2023-04-15T03:25:41;3.30;;;3.00;;
62423;SDS011;48463;43.604;3.872;2023-04-15T03:28:06;3.67;;;3.22;;
62423;SDS011;48463;43.604;3.872;2023-04-15T03:30:32;4.03;;;2.90;;
62423;SDS011;48463;43.604;3.872;2023-04-15T03:32:58;4.45;;;3.22;;
62423;SDS011;48463;43.604;3.872;2023-04-15T03:35:23;5.28;;;3.22;;
62423;SDS011;48463;43.604;3.872;2023-04-15T03:37:49;3.72;;;3.00;;
62423;SDS011;48463;43.604;3.872;2023-04-15T03:40:15;3.55;;;3.17;;
62423;SDS011;48463;43.604;3.872;2023-04-15T03:42:40;3.55;;;3.10;;
62423;SDS011;48463;43.604;3.872;2023-04-15T03:45:06;8.25;;;3.42;;
62423;SDS011;48463;43.604;3.872;2023-04-15T03:47:32;5.57;;;3.20;;
62423;SDS011;48463;43.604;3.872;2023-04-15T03:49:58;3.05;;;2.80;;
62423;SDS011;48463;43.604;3.872;2023-04-15T03:52:23;3.63;;;3.17;;
62423;SDS011;48463;43.604;3.872;2023-04-15T03:54:49;3.65;;;3.10;;
62423;SDS011;48463;43.604;3.872;2023-04-15T03:57:15;5.53;;;3.25;;
62423;SDS011;48463;43.604;3.872;2023-04-15T03:59:41;4.18;;;3.30;;
62423;SDS011;48463;43.604;3.872;2023-04-15T04:02:06;3.60;;;3.13;;
62423;SDS011;48463;43.604;3.872;2023-04-15T04:04:32;3.10;;;2.75;;
62423;SDS011;48463;43.604;3.872;2023-04-15T04:06:58;6.00;;;3.17;;
62423;SDS011;48463;43.604;3.872;2023-04-15T04:09:23;6.20;;;3.58;;
62423;SDS011;48463;43.604;3.872;2023-04-15T04:11:49;6.28;;;3.33;;
62423;SDS011;48463;43.604;3.872;2023-04-15T04:14:15;3.20;;;2.90;;
62423;SDS011;48463;43.604;3.872;2023-04-15T04:16:41;5.30;;;3.25;;
62423;SDS011;48463;43.604;3.872;2023-04-15T04:19:06;5.43;;;3.08;;
62423;SDS011;48463;43.604;3.872;2023-04-15T04:21:32;10.18;;;3.33;;
62423;SDS011;48463;43.604;3.872;2023-04-15T04:23:58;4.20;;;3.30;;
62423;SDS011;48463;43.604;3.872;2023-04-15T04:26:24;3.08;;;2.78;;
62423;SDS011;48463;43.604;3.872;2023-04-15T04:28:50;4.70;;;3.17;;
62423;SDS011;48463;43.604;3.872;2023-04-15T04:31:15;5.18;;;3.05;;
62423;SDS011;48463;43.604;3.872;2023-04-15T04:33:41;4.75;;;3.03;;
62423;SDS011;48463;43.604;3.872;2023-04-15T04:36:07;1.95;;;1.20;;
62423;SDS011;48463;43.604;3.872;2023-04-15T04:38:33;2.95;;;1.50;;
62423;SDS011;48463;43.604;3.872;2023-04-15T04:40:58;2.80;;;1.58;;
62423;SDS011;48463;43.604;3.872;2023-04-15T04:43:24;4.05;;;1.98;;
62423;SDS011;48463;43.604;3.872;2023-04-15T04:45:51;2.78;;;1.60;;
62423;SDS011;48463;43.604;3.872;2023-04-15T04:48:16;1.10;;;1.00;;
62423;SDS011;48463;43.604;3.872;2023-04-15T04:50:43;1.77;;;1.20;;
62423;SDS011;48463;43.604;3.872;2023-04-15T04:53:09;1.67;;;1.30;;
62423;SDS011;48463;43.604;3.872;2023-04-15T04:55:35;1.98;;;1.30;;
62423;SDS011;48463;43.604;3.872;2023-04-15T04:58:01;1.58;;;1.08;;
62423;SDS011;48463;43.604;3.872;2023-04-15T05:00:27;3.80;;;1.33;;
62423;SDS011;48463;43.604;3.872;2023-04-15T05:02:53;2.13;;;1.38;;
62423;SDS011;48463;43.604;3.872;2023-04-15T05:05:19;6.25;;;1.45;;
62423;SDS011;48463;43.604;3.872;2023-04-15T05:07:45;1.60;;;1.35;;
62423;SDS011;48463;43.604;3.872;2023-04-15T05:10:13;2.33;;;1.33;;
62423;SDS011;48463;43.604;3.872;2023-04-15T05:12:39;2.38;;;1.40;;
62423;SDS011;48463;43.604;3.872;2023-04-15T05:15:05;1.80;;;1.20;;
62423;SDS011;48463;43.604;3.872;2023-04-15T05:17:31;2.13;;;1.35;;
62423;SDS011;48463;43.604;3.872;2023-04-15T05:19:59;2.15;;;1.35;;
62423;SDS011;48463;43.604;3.872;2023-04-15T05:22:25;2.58;;;1.40;;
62423;SDS011;48463;43.604;3.872;2023-04-15T05:24:50;1.35;;;1.20;;
62423;SDS011;48463;43.604;3.872;2023-04-15T05:27:16;2.65;;;1.27;;
62423;SDS011;48463;43.604;3.872;2023-04-15T05:29:43;1.63;;;1.27;;
62423;SDS011;48463;43.604;3.872;2023-04-15T05:32:09;7.05;;;1.20;;
62423;SDS011;48463;43.604;3.872;2023-04-15T05:34:34;3.08;;;1.40;;
62423;SDS011;48463;43.604;3.872;2023-04-15T05:37:00;4.70;;;1.65;;
62423;SDS011;48463;43.604;3.872;2023-04-15T05:39:26;1.20;;;1.00;;
62423;SDS011;48463;43.604;3.872;2023-04-15T05:41:52;3.13;;;1.30;;
62423;SDS011;48463;43.604;3.872;2023-04-15T05:44:17;1.40;;;1.00;;
62423;SDS011;48463;43.604;3.872;2023-04-15T05:46:43;1.58;;;1.20;;
62423;SDS011;48463;43.604;3.872;2023-04-15T05:49:08;1.35;;;1.13;;
62423;SDS011;48463;43.604;3.872;2023-04-15T05:51:34;2.17;;;1.27;;
62423;SDS011;48463;43.604;3.872;2023-04-15T05:54:00;1.35;;;1.23;;
62423;SDS011;48463;43.604;3.872;2023-04-15T05:56:26;3.67;;;1.30;;
62423;SDS011;48463;43.604;3.872;2023-04-15T05:58:51;3.17;;;1.45;;
62423;SDS011;48463;43.604;3.872;2023-04-15T06:01:17;1.02;;;0.90;;
62423;SDS011;48463;43.604;3.872;2023-04-15T06:03:43;1.15;;;1.05;;
62423;SDS011;48463;43.604;3.872;2023-04-15T06:06:08;0.95;;;0.90;;
62423;SDS011;48463;43.604;3.872;2023-04-15T06:08:34;1.23;;;0.90;;
62423;SDS011;48463;43.604;3.872;2023-04-15T06:11:00;1.75;;;1.33;;
62423;SDS011;48463;43.604;3.872;2023-04-15T06:13:26;1.15;;;1.00;;
62423;SDS011;48463;43.604;3.872;2023-04-15T06:15:51;2.03;;;1.35;;
62423;SDS011;48463;43.604;3.872;2023-04-15T06:18:17;1.45;;;1.02;;
62423;SDS011;48463;43.604;3.872;2023-04-15T06:20:44;2.53;;;1.15;;
62423;SDS011;48463;43.604;3.872;2023-04-15T06:23:10;0.90;;;0.90;;
62423;SDS011;48463;43.604;3.872;2023-04-15T06:25:36;4.50;;;1.20;;
62423;SDS011;48463;43.604;3.872;2023-04-15T06:28:01;0.85;;;0.85;;
62423;SDS011;48463;43.604;3.872;2023-04-15T06:30:27;2.75;;;0.95;;
62423;SDS011;48463;43.604;3.872;2023-04-15T06:32:53;1.30;;;0.90;;
62423;SDS011;48463;43.604;3.872;2023-04-15T06:35:20;1.13;;;1.00;;
62423;SDS011;48463;43.604;3.872;2023-04-15T06:37:46;2.58;;;1.02;;
62423;SDS011;48463;43.604;3.872;2023-04-15T06:40:11;1.65;;;1.20;;
62423;SDS011;48463;43.604;3.872;2023-04-15T06:42:37;1.10;;;1.00;;
62423;SDS011;48463;43.604;3.872;2023-04-15T06:45:03;1.85;;;1.15;;
62423;SDS011;48463;43.604;3.872;2023-04-15T06:47:29;2.38;;;0.90;;
62423;SDS011;48463;43.604;3.872;2023-04-15T06:49:55;1.92;;;1.10;;
62423;SDS011;48463;43.604;3.872;2023-04-15T06:52:20;4.13;;;1.25;;
62423;SDS011;48463;43.604;3.872;2023-04-15T06:54:46;1.23;;;0.98;;
62423;SDS011;48463;43.604;3.872;2023-04-15T06:57:12;1.52;;;1.05;;
62423;SDS011;48463;43.604;3.872;2023-04-15T06:59:37;1.23;;;0.93;;
62423;SDS011;48463;43.604;3.872;2023-04-15T07:02:03;0.93;;;0.88;;
62423;SDS011;48463;43.604;3.872;2023-04-15T07:04:28;1.25;;;1.00;;
62423;SDS011;48463;43.604;3.872;2023-04-15T07:06:54;1.15;;;0.90;;
62423;SDS011;48463;43.604;3.872;2023-04-15T07:09:21;0.90;;;0.90;;
62423;SDS011;48463;43.604;3.872;2023-04-15T07:11:47;0.75;;;0.73;;
62423;SDS011;48463;43.604;3.872;2023-04-15T07:14:13;1.52;;;1.33;;
62423;SDS011;48463;43.604;3.872;2023-04-15T07:16:39;1.95;;;1.00;;
62423;SDS011;48463;43.604;3.872;2023-04-15T07:19:04;1.77;;;1.00;;
62423;SDS011;48463;43.604;3.872;2023-04-15T07:21:30;1.40;;;1.00;;
62423;SDS011;48463;43.604;3.872;2023-04-15T07:23:56;1.05;;;0.98;;
62423;SDS011;48463;43.604;3.872;2023-04-15T07:26:22;1.00;;;0.90;;
62423;SDS011;48463;43.604;3.872;2023-04-15T07:28:48;0.70;;;0.70;;
62423;SDS011;48463;43.604;3.872;2023-04-15T07:31:14;1.90;;;1.10;;
62423;SDS011;48463;43.604;3.872;2023-04-15T07:33:41;2.85;;;1.17;;
62423;SDS011;48463;43.604;3.872;2023-04-15T07:36:06;3.92;;;1.20;;
62423;SDS011;48463;43.604;3.872;2023-04-15T07:38:32;5.28;;;1.50;;
62423;SDS011;48463;43.604;3.872;2023-04-15T07:40:58;1.42;;;1.05;;
62423;SDS011;48463;43.604;3.872;2023-04-15T07:43:23;4.45;;;1.30;;
62423;SDS011;48463;43.604;3.872;2023-04-15T07:45:49;2.45;;;1.10;;
62423;SDS011;48463;43.604;3.872;2023-04-15T07:48:15;2.22;;;1.10;;
62423;SDS011;48463;43.604;3.872;2023-04-15T07:50:40;2.42;;;1.35;;
62423;SDS011;48463;43.604;3.872;2023-04-15T07:53:06;3.03;;;1.52;;
62423;SDS011;48463;43.604;3.872;2023-04-15T07:55:32;4.22;;;1.58;;
62423;SDS011;48463;43.604;3.872;2023-04-15T07:57:58;3.42;;;1.40;;
62423;SDS011;48463;43.604;3.872;2023-04-15T08:00:23;6.50;;;1.67;;
62423;SDS011;48463;43.604;3.872;2023-04-15T08:02:50;3.45;;;1.67;;
62423;SDS011;48463;43.604;3.872;2023-04-15T08:05:17;1.60;;;1.05;;
62423;SDS011;48463;43.604;3.872;2023-04-15T08:07:43;2.10;;;1.10;;
62423;SDS011;48463;43.604;3.872;2023-04-15T08:10:09;3.63;;;1.55;;
62423;SDS011;48463;43.604;3.872;2023-04-15T08:12:36;1.83;;;1.33;;
62423;SDS011;48463;43.604;3.872;2023-04-15T08:15:02;6.10;;;2.22;;
62423;SDS011;48463;43.604;3.872;2023-04-15T08:17:28;2.30;;;1.38;;
62423;SDS011;48463;43.604;3.872;2023-04-15T08:19:53;1.83;;;1.35;;
62423;SDS011;48463;43.604;3.872;2023-04-15T08:22:20;6.28;;;1.42;;
62423;SDS011;48463;43.604;3.872;2023-04-15T08:24:45;3.55;;;1.60;;
62423;SDS011;48463;43.604;3.872;2023-04-15T08:27:11;2.63;;;1.40;;
62423;SDS011;48463;43.604;3.872;2023-04-15T08:29:37;9.88;;;1.90;;
62423;SDS011;48463;43.604;3.872;2023-04-15T08:32:03;4.07;;;1.88;;
62423;SDS011;48463;43.604;3.872;2023-04-15T08:34:31;2.78;;;1.42;;
62423;SDS011;48463;43.604;3.872;2023-04-15T08:36:57;2.88;;;1.50;;
62423;SDS011;48463;43.604;3.872;2023-04-15T08:39:23;8.60;;;1.98;;
62423;SDS011;48463;43.604;3.872;2023-04-15T08:44:25;11.48;;;3.20;;
62423;SDS011;48463;43.604;3.872;2023-04-15T08:46:55;7.90;;;2.50;;
62423;SDS011;48463;43.604;3.872;2023-04-15T08:49:25;4.68;;;1.80;;
62423;SDS011;48463;43.604;3.872;2023-04-15T08:51:52;1.77;;;1.33;;
62423;SDS011;48463;43.604;3.872;2023-04-15T08:54:20;4.57;;;1.65;;
62423;SDS011;48463;43.604;3.872;2023-04-15T08:56:46;3.35;;;1.80;;
62423;SDS011;48463;43.604;3.872;2023-04-15T08:59:13;3.40;;;1.65;;
62423;SDS011;48463;43.604;3.872;2023-04-15T09:01:40;6.65;;;2.42;;
62423;SDS011;48463;43.604;3.872;2023-04-15T09:04:06;4.20;;;1.63;;
62423;SDS011;48463;43.604;3.872;2023-04-15T09:06:32;2.85;;;1.60;;
62423;SDS011;48463;43.604;3.872;2023-04-15T09:08:58;3.38;;;1.92;;
62423;SDS011;48463;43.604;3.872;2023-04-15T09:11:23;3.42;;;1.85;;
62423;SDS011;48463;43.604;3.872;2023-04-15T09:13:49;2.28;;;1.30;;
62423;SDS011;48463;43.604;3.872;2023-04-15T09:16:15;2.10;;;1.70;;
62423;SDS011;48463;43.604;3.872;2023-04-15T09:18:41;5.28;;;2.08;;
62423;SDS011;48463;43.604;3.872;2023-04-15T09:21:10;4.30;;;2.00;;
62423;SDS011;48463;43.604;3.872;2023-04-15T09:23:52;5.32;;;1.77;;
62423;SDS011;48463;43.604;3.872;2023-04-15T09:26:29;3.50;;;2.00;;
62423;SDS011;48463;43.604;3.872;2023-04-15T09:29:03;8.50;;;1.98;;
62423;SDS011;48463;43.604;3.872;2023-04-15T09:31:30;3.10;;;1.63;;
62423;SDS011;48463;43.604;3.872;2023-04-15T09:33:56;7.88;;;3.65;;
62423;SDS011;48463;43.604;3.872;2023-04-15T09:36:22;4.40;;;2.90;;
62423;SDS011;48463;43.604;3.872;2023-04-15T09:38:58;4.22;;;3.03;;
62423;SDS011;48463;43.604;3.872;2023-04-15T09:41:25;6.78;;;2.95;;
62423;SDS011;48463;43.604;3.872;2023-04-15T09:43:51;4.13;;;3.05;;
62423;SDS011;48463;43.604;3.872;2023-04-15T09:46:17;7.38;;;3.10;;
62423;SDS011;48463;43.604;3.872;2023-04-15T09:48:42;5.40;;;2.88;;
62423;SDS011;48463;43.604;3.872;2023-04-15T09:51:08;9.30;;;4.05;;
62423;SDS011;48463;43.604;3.872;2023-04-15T09:53:34;3.95;;;2.85;;
62423;SDS011;48463;43.604;3.872;2023-04-15T09:56:02;4.43;;;2.90;;
62423;SDS011;48463;43.604;3.872;2023-04-15T09:58:29;4.05;;;2.90;;
62423;SDS011;48463;43.604;3.872;2023-04-15T10:00:57;5.40;;;3.47;;
62423;SDS011;48463;43.604;3.872;2023-04-15T10:03:26;6.70;;;3.50;;
62423;SDS011;48463;43.604;3.872;2023-04-15T10:05:54;6.75;;;2.97;;
62423;SDS011;48463;43.604;3.872;2023-04-15T10:08:25;6.65;;;3.53;;
62423;SDS011;48463;43.604;3.872;2023-04-15T10:10:52;8.65;;;3.20;;
62423;SDS011;48463;43.604;3.872;2023-04-15T10:13:19;11.75;;;3.55;;
62423;SDS011;48463;43.604;3.872;2023-04-15T10:15:53;5.65;;;3.20;;
62423;SDS011;48463;43.604;3.872;2023-04-15T10:18:25;6.50;;;3.10;;
62423;SDS011;48463;43.604;3.872;2023-04-15T10:20:52;7.35;;;3.83;;
62423;SDS011;48463;43.604;3.872;2023-04-15T10:23:19;5.05;;;2.90;;
62423;SDS011;48463;43.604;3.872;2023-04-15T10:25:47;7.18;;;3.08;;
62423;SDS011;48463;43.604;3.872;2023-04-15T10:28:15;7.00;;;3.35;;
62423;SDS011;48463;43.604;3.872;2023-04-15T10:30:41;6.07;;;3.20;;
62423;SDS011;48463;43.604;3.872;2023-04-15T10:33:08;6.72;;;2.83;;
62423;SDS011;48463;43.604;3.872;2023-04-15T10:35:35;7.18;;;3.83;;
62423;SDS011;48463;43.604;3.872;2023-04-15T10:38:01;4.68;;;3.03;;
62423;SDS011;48463;43.604;3.872;2023-04-15T10:40:47;15.50;;;4.18;;
62423;SDS011;48463;43.604;3.872;2023-04-15T10:43:23;8.70;;;3.75;;
62423;SDS011;48463;43.604;3.872;2023-04-15T10:45:52;3.38;;;2.78;;
62423;SDS011;48463;43.604;3.872;2023-04-15T10:48:18;7.47;;;3.25;;
62423;SDS011;48463;43.604;3.872;2023-04-15T10:50:54;12.40;;;3.70;;
62423;SDS011;48463;43.604;3.872;2023-04-15T10:53:28;5.63;;;2.67;;
62423;SDS011;48463;43.604;3.872;2023-04-15T10:55:56;5.13;;;2.90;;
62423;SDS011;48463;43.604;3.872;2023-04-15T10:58:22;7.38;;;3.10;;
62423;SDS011;48463;43.604;3.872;2023-04-15T11:00:50;7.55;;;2.90;;
62423;SDS011;48463;43.604;3.872;2023-04-15T11:03:20;4.63;;;2.60;;
62423;SDS011;48463;43.604;3.872;2023-04-15T11:06:03;4.45;;;2.65;;
62423;SDS011;48463;43.604;3.872;2023-04-15T11:11:19;6.28;;;2.83;;
62423;SDS011;48463;43.604;3.872;2023-04-15T11:13:48;6.03;;;2.90;;
62423;SDS011;48463;43.604;3.872;2023-04-15T11:16:15;8.25;;;3.10;;
62423;SDS011;48463;43.604;3.872;2023-04-15T11:18:41;4.57;;;2.53;;
62423;SDS011;48463;43.604;3.872;2023-04-15T11:21:17;4.30;;;2.80;;
62423;SDS011;48463;43.604;3.872;2023-04-15T11:23:42;3.53;;;2.60;;
62423;SDS011;48463;43.604;3.872;2023-04-15T11:26:10;3.97;;;2.63;;
62423;SDS011;48463;43.604;3.872;2023-04-15T11:28:37;2.35;;;2.10;;
62423;SDS011;48463;43.604;3.872;2023-04-15T11:31:08;5.45;;;2.95;;
62423;SDS011;48463;43.604;3.872;2023-04-15T11:33:57;6.20;;;2.40;;
62423;SDS011;48463;43.604;3.872;2023-04-15T11:36:25;4.85;;;2.80;;
62423;SDS011;48463;43.604;3.872;2023-04-15T11:38:52;3.97;;;2.67;;
62423;SDS011;48463;43.604;3.872;2023-04-15T11:41:22;3.83;;;2.40;;
62423;SDS011;48463;43.604;3.872;2023-04-15T11:43:48;11.02;;;3.13;;
62423;SDS011;48463;43.604;3.872;2023-04-15T11:46:15;4.55;;;2.70;;
62423;SDS011;48463;43.604;3.872;2023-04-15T11:48:42;6.15;;;2.50;;
62423;SDS011;48463;43.604;3.872;2023-04-15T11:51:08;5.55;;;3.03;;
62423;SDS011;48463;43.604;3.872;2023-04-15T11:56:09;8.93;;;2.70;;
62423;SDS011;48463;43.604;3.872;2023-04-15T11:58:36;4.85;;;2.63;;
62423;SDS011;48463;43.604;3.872;2023-04-15T12:01:04;5.25;;;2.58;;
62423;SDS011;48463;43.604;3.872;2023-04-15T12:03:41;4.15;;;2.35;;
62423;SDS011;48463;43.604;3.872;2023-04-15T12:11:26;7.65;;;2.92;;
62423;SDS011;48463;43.604;3.872;2023-04-15T12:13:56;3.90;;;2.50;;
62423;SDS011;48463;43.604;3.872;2023-04-15T12:16:30;3.80;;;2.28;;
62423;SDS011;48463;43.604;3.872;2023-04-15T12:18:59;7.47;;;2.58;;
62423;SDS011;48463;43.604;3.872;2023-04-15T12:21:33;5.30;;;2.47;;
62423;SDS011;48463;43.604;3.872;2023-04-15T12:24:02;4.35;;;2.80;;
62423;SDS011;48463;43.604;3.872;2023-04-15T12:26:35;4.57;;;2.53;;
62423;SDS011;48463;43.604;3.872;2023-04-15T12:29:08;5.25;;;2.38;;
62423;SDS011;48463;43.604;3.872;2023-04-15T12:31:34;6.03;;;2.40;;
62423;SDS011;48463;43.604;3.872;2023-04-15T12:34:01;14.85;;;3.42;;
62423;SDS011;48463;43.604;3.872;2023-04-15T12:36:28;5.25;;;2.30;;
62423;SDS011;48463;43.604;3.872;2023-04-15T12:39:00;3.28;;;2.30;;
62423;SDS011;48463;43.604;3.872;2023-04-15T12:41:29;5.03;;;2.88;;
62423;SDS011;48463;43.604;3.872;2023-04-15T12:43:55;4.53;;;3.10;;
62423;SDS011;48463;43.604;3.872;2023-04-15T12:46:20;3.75;;;2.30;;
62423;SDS011;48463;43.604;3.872;2023-04-15T12:48:46;4.20;;;2.90;;
62423;SDS011;48463;43.604;3.872;2023-04-15T12:51:12;6.45;;;2.38;;
62423;SDS011;48463;43.604;3.872;2023-04-15T12:53:38;4.45;;;2.95;;
62423;SDS011;48463;43.604;3.872;2023-04-15T12:56:04;5.70;;;3.03;;
62423;SDS011;48463;43.604;3.872;2023-04-15T12:58:30;5.88;;;2.58;;
62423;SDS011;48463;43.604;3.872;2023-04-15T13:00:56;8.25;;;2.42;;
62423;SDS011;48463;43.604;3.872;2023-04-15T13:03:22;4.45;;;2.33;;
62423;SDS011;48463;43.604;3.872;2023-04-15T13:05:47;15.13;;;4.82;;
62423;SDS011;48463;43.604;3.872;2023-04-15T13:08:13;7.45;;;2.55;;
62423;SDS011;48463;43.604;3.872;2023-04-15T13:10:38;12.80;;;2.63;;
62423;SDS011;48463;43.604;3.872;2023-04-15T13:13:06;15.35;;;4.03;;
62423;SDS011;48463;43.604;3.872;2023-04-15T13:15:32;6.25;;;3.05;;
62423;SDS011;48463;43.604;3.872;2023-04-15T13:17:58;4.80;;;2.40;;
62423;SDS011;48463;43.604;3.872;2023-04-15T13:20:25;5.47;;;2.40;;
62423;SDS011;48463;43.604;3.872;2023-04-15T13:22:51;17.08;;;5.53;;
62423;SDS011;48463;43.604;3.872;2023-04-15T13:25:17;51.10;;;8.50;;
62423;SDS011;48463;43.604;3.872;2023-04-15T13:27:43;13.80;;;3.42;;
62423;SDS011;48463;43.604;3.872;2023-04-15T13:30:10;4.97;;;2.65;;
62423;SDS011;48463;43.604;3.872;2023-04-15T13:32:37;17.58;;;4.13;;
62423;SDS011;48463;43.604;3.872;2023-04-15T13:35:02;16.27;;;3.38;;
62423;SDS011;48463;43.604;3.872;2023-04-15T13:37:29;5.65;;;2.50;;
62423;SDS011;48463;43.604;3.872;2023-04-15T13:39:55;8.23;;;3.15;;
62423;SDS011;48463;43.604;3.872;2023-04-15T13:42:21;6.50;;;2.92;;
62423;SDS011;48463;43.604;3.872;2023-04-15T13:44:51;15.68;;;3.10;;
62423;SDS011;48463;43.604;3.872;2023-04-15T13:47:20;26.08;;;4.13;;
62423;SDS011;48463;43.604;3.872;2023-04-15T13:49:46;17.38;;;4.88;;
62423;SDS011;48463;43.604;3.872;2023-04-15T13:52:12;5.78;;;2.83;;
62423;SDS011;48463;43.604;3.872;2023-04-15T13:54:38;11.07;;;3.35;;
62423;SDS011;48463;43.604;3.872;2023-04-15T13:57:04;4.07;;;2.65;;
62423;SDS011;48463;43.604;3.872;2023-04-15T13:59:30;12.27;;;3.63;;
62423;SDS011;48463;43.604;3.872;2023-04-15T14:01:58;4.65;;;2.40;;
62423;SDS011;48463;43.604;3.872;2023-04-15T14:04:24;4.25;;;2.67;;
62423;SDS011;48463;43.604;3.872;2023-04-15T14:06:49;7.03;;;2.50;;
62423;SDS011;48463;43.604;3.872;2023-04-15T14:09:15;3.67;;;2.75;;
62423;SDS011;48463;43.604;3.872;2023-04-15T14:11:41;9.68;;;2.45;;
62423;SDS011;48463;43.604;3.872;2023-04-15T14:14:06;11.27;;;3.63;;
62423;SDS011;48463;43.604;3.872;2023-04-15T14:16:32;21.10;;;3.42;;
62423;SDS011;48463;43.604;3.872;2023-04-15T14:18:58;7.18;;;2.78;;
62423;SDS011;48463;43.604;3.872;2023-04-15T14:21:24;9.75;;;3.38;;
62423;SDS011;48463;43.604;3.872;2023-04-15T14:23:55;4.85;;;2.30;;
62423;SDS011;48463;43.604;3.872;2023-04-15T14:26:21;12.05;;;2.13;;
62423;SDS011;48463;43.604;3.872;2023-04-15T14:28:47;3.20;;;1.50;;
62423;SDS011;48463;43.604;3.872;2023-04-15T14:31:13;4.63;;;1.88;;
62423;SDS011;48463;43.604;3.872;2023-04-15T14:33:39;9.23;;;2.65;;
62423;SDS011;48463;43.604;3.872;2023-04-15T14:36:05;5.05;;;2.28;;
62423;SDS011;48463;43.604;3.872;2023-04-15T14:38:35;1.70;;;1.13;;
62423;SDS011;48463;43.604;3.872;2023-04-15T14:41:03;8.18;;;1.50;;
62423;SDS011;48463;43.604;3.872;2023-04-15T14:43:29;5.78;;;2.10;;
62423;SDS011;48463;43.604;3.872;2023-04-15T14:45:54;9.90;;;2.28;;
62423;SDS011;48463;43.604;3.872;2023-04-15T14:48:20;3.92;;;1.75;;
62423;SDS011;48463;43.604;3.872;2023-04-15T14:50:46;9.32;;;2.22;;
62423;SDS011;48463;43.604;3.872;2023-04-15T14:53:12;4.57;;;1.88;;
62423;SDS011;48463;43.604;3.872;2023-04-15T14:55:38;3.95;;;1.95;;
62423;SDS011;48463;43.604;3.872;2023-04-15T14:58:04;5.20;;;2.08;;